PREVISON - TAF: TAF - Paris-Aeroport Charles De Gaulle, France du: 20180930000000h UTC
TypeJUTCVentVisi. H.CouvertureMétéo
PREVISION 300000 010000 20° 19 km/h = 4000 m FEW à 61 m BR
PROB prob. 40%
PROVISOIRE 300800 300800 BKN à 152 m
PROB prob. 30%
PROVISOIRE 300800 300800 = 800 m BKN à 61 m BC FG
EVOLUTION 300000 301000 = 7000 m NSW / NSC
PROB = 4000 m prob. 40% BR

PREVISION brut - TAF AMD LFPG 190842Z 1908/2012 02010KT 4000 BR FEW002 TX19/1914Z TN09/2006Z PROB40 TEMPO 1908/1910 BKN005 PROB30 TEMPO 1908/1910 0800 BCFG BKN002 BECMG 1910/1912 7000 NSW NSC PROB40 2004/2006 4000 BR


METAR brut: LFPG 190900Z 03008KT 340V100 1300 R27L/1800D R09R/1900U R26R/P2000 R08L/P2000 R26L/P2000 R08R/P2000 R27R/1900U R09L/P2000 BR BKN002 BKN003 10/10 Q1023 NOSIG
Vent: Paris-Aeroport Charles De Gaulle, France Météo: Paris-Aeroport Charles De Gaulle, France
METAR décodé: Paris-Aeroport Charles De Gaulle, France.
Up : 22 mn à 09:00 UTC.
Vent : 15 km/h >> Nord-NE (030°), var Nord-NO (340°)et Est (100°).
Visibilité Hor. : 1300 m.
Nuages : BKN 5/8>7/8 à 61 m et BKN 5/8>7/8 à 91 m.
Température : 10 °C. P. rosée. : 10 °C.
Humidité : 100.0%.
Pression : 1023 hPa.
Météo : brume - pas de changement significatif dans les deux prochaines heures..